sensor_id;sensor_type;location;lat;lon;timestamp;pressure;altitude;pressure_sealevel;temperature;humidity
20027;BME280;10174;42.688;23.344;2023-04-16T00:00:59;94781.09;;;10.49;67.13
20027;BME280;10174;42.688;23.344;2023-04-16T00:03:25;94789.13;;;10.55;67.73
20027;BME280;10174;42.688;23.344;2023-04-16T00:05:50;94778.41;;;10.49;67.84
20027;BME280;10174;42.688;23.344;2023-04-16T00:08:20;94790.25;;;10.43;68.05
20027;BME280;10174;42.688;23.344;2023-04-16T00:10:45;94768.81;;;10.33;68.83
20027;BME280;10174;42.688;23.344;2023-04-16T00:13:11;94788.66;;;10.37;68.78
20027;BME280;10174;42.688;23.344;2023-04-16T00:15:36;94778.19;;;10.25;68.83
20027;BME280;10174;42.688;23.344;2023-04-16T00:18:01;94753.31;;;9.99;69.23
20027;BME280;10174;42.688;23.344;2023-04-16T00:20:27;94780.63;;;10.16;69.31
20027;BME280;10174;42.688;23.344;2023-04-16T00:22:52;94768.31;;;10.05;69.85
20027;BME280;10174;42.688;23.344;2023-04-16T00:25:17;94751.16;;;9.91;69.54
20027;BME280;10174;42.688;23.344;2023-04-16T00:27:43;94788.72;;;10.01;70.06
20027;BME280;10174;42.688;23.344;2023-04-16T00:30:08;94749.06;;;9.72;69.71
20027;BME280;10174;42.688;23.344;2023-04-16T00:32:34;94782.81;;;9.94;69.91
20027;BME280;10174;42.688;23.344;2023-04-16T00:34:59;94774.81;;;9.89;70.39
20027;BME280;10174;42.688;23.344;2023-04-16T00:37:25;94767.31;;;9.75;71.36
20027;BME280;10174;42.688;23.344;2023-04-16T00:39:50;94752.31;;;9.74;71.04
20027;BME280;10174;42.688;23.344;2023-04-16T00:42:15;94712.09;;;9.43;70.98
20027;BME280;10174;42.688;23.344;2023-04-16T00:44:41;94659.34;;;9.08;70.20
20027;BME280;10174;42.688;23.344;2023-04-16T00:47:07;94754.19;;;9.58;70.52
20027;BME280;10174;42.688;23.344;2023-04-16T00:49:33;94782.34;;;9.56;71.27
20027;BME280;10174;42.688;23.344;2023-04-16T00:51:59;94784.25;;;9.50;71.60
20027;BME280;10174;42.688;23.344;2023-04-16T00:54:27;94776.44;;;9.43;72.40
20027;BME280;10174;42.688;23.344;2023-04-16T00:56:54;94670.84;;;8.72;72.49
20027;BME280;10174;42.688;23.344;2023-04-16T00:59:20;94764.66;;;9.34;72.66
20027;BME280;10174;42.688;23.344;2023-04-16T01:01:45;94649.97;;;8.64;72.04
20027;BME280;10174;42.688;23.344;2023-04-16T01:04:11;94767.31;;;9.50;70.68
20027;BME280;10174;42.688;23.344;2023-04-16T01:06:36;94730.88;;;9.28;70.52
20027;BME280;10174;42.688;23.344;2023-04-16T01:09:02;94750.19;;;9.45;70.17
20027;BME280;10174;42.688;23.344;2023-04-16T01:11:28;94775.38;;;9.55;70.19
20027;BME280;10174;42.688;23.344;2023-04-16T01:13:53;94774.84;;;9.48;70.41
20027;BME280;10174;42.688;23.344;2023-04-16T01:16:18;94766.00;;;9.32;71.18
20027;BME280;10174;42.688;23.344;2023-04-16T01:18:44;94775.91;;;9.31;71.28
20027;BME280;10174;42.688;23.344;2023-04-16T01:21:09;94449.09;;;7.30;71.11
20027;BME280;10174;42.688;23.344;2023-04-16T01:23:35;94765.19;;;9.31;71.24
20027;BME280;10174;42.688;23.344;2023-04-16T01:26:00;94767.88;;;9.31;70.97
20027;BME280;10174;42.688;23.344;2023-04-16T01:28:26;94631.16;;;8.28;71.68
20027;BME280;10174;42.688;23.344;2023-04-16T01:30:51;94742.13;;;8.94;71.91
20027;BME280;10174;42.688;23.344;2023-04-16T01:33:17;94765.69;;;9.02;72.47
20027;BME280;10174;42.688;23.344;2023-04-16T01:35:43;94763.03;;;9.07;72.73
20027;BME280;10174;42.688;23.344;2023-04-16T01:38:09;94701.34;;;8.61;72.89
20027;BME280;10174;42.688;23.344;2023-04-16T01:40:35;94765.19;;;8.95;73.43
20027;BME280;10174;42.688;23.344;2023-04-16T01:43:00;94758.72;;;8.91;73.08
20027;BME280;10174;42.688;23.344;2023-04-16T01:45:26;94626.25;;;7.99;73.53
20027;BME280;10174;42.688;23.344;2023-04-16T01:47:51;94746.94;;;8.77;73.17
20027;BME280;10174;42.688;23.344;2023-04-16T01:50:18;94730.84;;;8.66;73.64
20027;BME280;10174;42.688;23.344;2023-04-16T01:52:44;94764.59;;;8.78;73.77
20027;BME280;10174;42.688;23.344;2023-04-16T01:55:10;94754.97;;;8.77;73.86
20027;BME280;10174;42.688;23.344;2023-04-16T01:57:35;94744.25;;;8.82;73.29
20027;BME280;10174;42.688;23.344;2023-04-16T02:00:02;94730.03;;;8.71;72.63
20027;BME280;10174;42.688;23.344;2023-04-16T02:02:28;94721.19;;;8.65;72.38
20027;BME280;10174;42.688;23.344;2023-04-16T02:04:54;94763.56;;;8.94;72.38
20027;BME280;10174;42.688;23.344;2023-04-16T02:07:21;94754.47;;;9.00;71.91
20027;BME280;10174;42.688;23.344;2023-04-16T02:09:47;94749.09;;;9.00;72.03
20027;BME280;10174;42.688;23.344;2023-04-16T02:12:15;94712.09;;;8.87;71.46
20027;BME280;10174;42.688;23.344;2023-04-16T02:14:40;94750.72;;;9.12;71.11
20027;BME280;10174;42.688;23.344;2023-04-16T02:17:05;94691.50;;;8.72;71.41
20027;BME280;10174;42.688;23.344;2023-04-16T02:19:31;94745.59;;;8.95;70.92
20027;BME280;10174;42.688;23.344;2023-04-16T02:21:56;94693.09;;;8.68;70.45
20027;BME280;10174;42.688;23.344;2023-04-16T02:24:22;94745.34;;;8.91;70.53
20027;BME280;10174;42.688;23.344;2023-04-16T02:26:47;94742.09;;;8.84;70.71
20027;BME280;10174;42.688;23.344;2023-04-16T02:29:12;94738.91;;;8.77;71.44
20027;BME280;10174;42.688;23.344;2023-04-16T02:31:38;94745.88;;;8.88;71.52
20027;BME280;10174;42.688;23.344;2023-04-16T02:34:04;94669.19;;;8.46;70.82
20027;BME280;10174;42.688;23.344;2023-04-16T02:36:30;94730.59;;;8.78;71.63
20027;BME280;10174;42.688;23.344;2023-04-16T02:38:56;94736.78;;;8.89;71.60
20027;BME280;10174;42.688;23.344;2023-04-16T02:41:22;94743.19;;;8.93;71.34
20027;BME280;10174;42.688;23.344;2023-04-16T02:43:47;94743.75;;;8.95;71.31
20027;BME280;10174;42.688;23.344;2023-04-16T02:46:13;94727.91;;;8.88;71.28
20027;BME280;10174;42.688;23.344;2023-04-16T02:48:38;94733.53;;;8.87;71.63
20027;BME280;10174;42.688;23.344;2023-04-16T02:51:04;94737.31;;;8.91;71.50
20027;BME280;10174;42.688;23.344;2023-04-16T02:53:30;94734.88;;;8.89;71.62
20027;BME280;10174;42.688;23.344;2023-04-16T02:55:55;94734.34;;;8.98;71.53
20027;BME280;10174;42.688;23.344;2023-04-16T02:58:22;94732.22;;;8.89;71.48
20027;BME280;10174;42.688;23.344;2023-04-16T03:00:49;94715.31;;;8.79;71.92
20027;BME280;10174;42.688;23.344;2023-04-16T03:03:14;94715.88;;;8.86;71.42
20027;BME280;10174;42.688;23.344;2023-04-16T03:05:40;94636.50;;;8.28;71.48
20027;BME280;10174;42.688;23.344;2023-04-16T03:08:05;94705.94;;;8.76;71.01
20027;BME280;10174;42.688;23.344;2023-04-16T03:10:31;94616.16;;;8.17;70.74
20027;BME280;10174;42.688;23.344;2023-04-16T03:12:57;94723.34;;;8.84;70.90
20027;BME280;10174;42.688;23.344;2023-04-16T03:15:22;94739.44;;;8.89;70.67
20027;BME280;10174;42.688;23.344;2023-04-16T03:17:48;94735.72;;;8.95;70.34
20027;BME280;10174;42.688;23.344;2023-04-16T03:20:13;94734.63;;;8.91;70.14
20027;BME280;10174;42.688;23.344;2023-04-16T03:22:41;94742.13;;;8.94;70.71
20027;BME280;10174;42.688;23.344;2023-04-16T03:25:07;94721.22;;;8.70;70.48
20027;BME280;10174;42.688;23.344;2023-04-16T03:27:33;94737.81;;;8.93;70.69
20027;BME280;10174;42.688;23.344;2023-04-16T03:29:58;94748.00;;;8.96;70.72
20027;BME280;10174;42.688;23.344;2023-04-16T03:32:24;94705.13;;;8.81;70.79
20027;BME280;10174;42.688;23.344;2023-04-16T03:34:49;94696.03;;;8.82;69.86
20027;BME280;10174;42.688;23.344;2023-04-16T03:37:15;94733.03;;;9.11;69.91
20027;BME280;10174;42.688;23.344;2023-04-16T03:39:40;94751.22;;;9.08;69.90
20027;BME280;10174;42.688;23.344;2023-04-16T03:42:06;94747.47;;;8.99;70.06
20027;BME280;10174;42.688;23.344;2023-04-16T03:44:31;94723.34;;;8.79;70.09
20027;BME280;10174;42.688;23.344;2023-04-16T03:46:57;94754.47;;;8.95;70.11
20027;BME280;10174;42.688;23.344;2023-04-16T03:49:22;94734.88;;;8.84;70.69
20027;BME280;10174;42.688;23.344;2023-04-16T03:51:47;94751.78;;;9.00;70.15
20027;BME280;10174;42.688;23.344;2023-04-16T03:54:13;94757.94;;;8.96;67.43
20027;BME280;10174;42.688;23.344;2023-04-16T03:56:41;94750.69;;;8.91;66.10
20027;BME280;10174;42.688;23.344;2023-04-16T03:59:07;94753.09;;;8.93;66.18
20027;BME280;10174;42.688;23.344;2023-04-16T04:01:33;94739.44;;;8.84;64.92
20027;BME280;10174;42.688;23.344;2023-04-16T04:03:58;94766.78;;;8.91;64.75
20027;BME280;10174;42.688;23.344;2023-04-16T04:06:24;94626.81;;;8.07;64.97
20027;BME280;10174;42.688;23.344;2023-04-16T04:08:49;94736.72;;;8.68;64.31
20027;BME280;10174;42.688;23.344;2023-04-16T04:11:15;94747.19;;;8.85;63.57
20027;BME280;10174;42.688;23.344;2023-04-16T04:13:40;94734.06;;;8.79;63.32
20027;BME280;10174;42.688;23.344;2023-04-16T04:16:06;94691.47;;;8.67;65.52
20027;BME280;10174;42.688;23.344;2023-04-16T04:18:31;94733.03;;;9.00;67.07
20027;BME280;10174;42.688;23.344;2023-04-16T04:20:57;94778.59;;;9.26;66.98
20027;BME280;10174;42.688;23.344;2023-04-16T04:23:23;94735.69;;;9.00;67.14
20027;BME280;10174;42.688;23.344;2023-04-16T04:25:48;94652.06;;;8.42;62.47
20027;BME280;10174;42.688;23.344;2023-04-16T04:28:14;94779.66;;;9.20;62.72
20027;BME280;10174;42.688;23.344;2023-04-16T04:30:39;94751.78;;;9.05;62.57
20027;BME280;10174;42.688;23.344;2023-04-16T04:33:05;94802.19;;;9.29;62.45
20027;BME280;10174;42.688;23.344;2023-04-16T04:35:31;94778.06;;;9.24;62.00
20027;BME280;10174;42.688;23.344;2023-04-16T04:37:56;94785.03;;;9.20;61.97
20027;BME280;10174;42.688;23.344;2023-04-16T04:40:21;94772.97;;;9.12;62.22
20027;BME280;10174;42.688;23.344;2023-04-16T04:42:47;94786.66;;;9.21;61.91
20027;BME280;10174;42.688;23.344;2023-04-16T04:45:12;94793.31;;;9.23;61.60
20027;BME280;10174;42.688;23.344;2023-04-16T04:47:37;94742.41;;;8.87;61.63
20027;BME280;10174;42.688;23.344;2023-04-16T04:50:03;94802.19;;;9.24;61.68
20027;BME280;10174;42.688;23.344;2023-04-16T04:52:29;94794.69;;;9.26;61.69
20027;BME280;10174;42.688;23.344;2023-04-16T04:54:54;94670.84;;;8.57;61.85
20027;BME280;10174;42.688;23.344;2023-04-16T04:57:20;94710.50;;;8.81;61.50
20027;BME280;10174;42.688;23.344;2023-04-16T04:59:45;94709.97;;;8.89;61.02
20027;BME280;10174;42.688;23.344;2023-04-16T05:02:11;94793.63;;;9.42;60.86
20027;BME280;10174;42.688;23.344;2023-04-16T05:04:36;94795.22;;;9.43;61.03
20027;BME280;10174;42.688;23.344;2023-04-16T05:07:02;94791.47;;;9.44;60.96
20027;BME280;10174;42.688;23.344;2023-04-16T05:09:27;94802.75;;;9.62;60.83
20027;BME280;10174;42.688;23.344;2023-04-16T05:11:53;94675.97;;;8.89;60.53
20027;BME280;10174;42.688;23.344;2023-04-16T05:14:18;94794.44;;;9.63;60.14
20027;BME280;10174;42.688;23.344;2023-04-16T05:16:43;94679.69;;;8.88;59.93
20027;BME280;10174;42.688;23.344;2023-04-16T05:19:09;94791.72;;;9.58;60.30
20027;BME280;10174;42.688;23.344;2023-04-16T05:21:35;94791.19;;;9.61;59.72
20027;BME280;10174;42.688;23.344;2023-04-16T05:24:00;94788.78;;;9.70;59.52
20027;BME280;10174;42.688;23.344;2023-04-16T05:26:25;94788.25;;;9.63;60.12
20027;BME280;10174;42.688;23.344;2023-04-16T05:28:51;94775.38;;;9.60;60.06
20027;BME280;10174;42.688;23.344;2023-04-16T05:31:16;94774.81;;;9.73;59.55
20027;BME280;10174;42.688;23.344;2023-04-16T05:33:41;94789.53;;;10.07;59.28
20027;BME280;10174;42.688;23.344;2023-04-16T05:36:07;94793.53;;;10.04;59.00
20027;BME280;10174;42.688;23.344;2023-04-16T05:38:32;94677.25;;;9.49;58.69
20027;BME280;10174;42.688;23.344;2023-04-16T05:40:57;94786.97;;;10.51;58.39
20027;BME280;10174;42.688;23.344;2023-04-16T05:43:23;94797.25;;;10.34;58.31
20027;BME280;10174;42.688;23.344;2023-04-16T05:45:49;94798.34;;;10.18;58.82
20027;BME280;10174;42.688;23.344;2023-04-16T05:48:14;94793.00;;;10.07;59.20
20027;BME280;10174;42.688;23.344;2023-04-16T05:50:40;94746.41;;;9.77;59.89
20027;BME280;10174;42.688;23.344;2023-04-16T05:53:06;94771.25;;;10.09;59.64
20027;BME280;10174;42.688;23.344;2023-04-16T05:55:32;94759.75;;;9.98;59.24
20027;BME280;10174;42.688;23.344;2023-04-16T05:57:58;94807.25;;;10.03;59.28
20027;BME280;10174;42.688;23.344;2023-04-16T06:00:23;94800.03;;;9.93;59.55
20027;BME280;10174;42.688;23.344;2023-04-16T06:02:49;94733.53;;;9.64;59.86
20027;BME280;10174;42.688;23.344;2023-04-16T06:05:15;94798.91;;;10.04;59.69
20027;BME280;10174;42.688;23.344;2023-04-16T06:07:40;94795.16;;;10.05;59.46
20027;BME280;10174;42.688;23.344;2023-04-16T06:10:06;94794.56;;;10.29;58.72
20027;BME280;10174;42.688;23.344;2023-04-16T06:12:31;94723.78;;;9.94;58.31
20027;BME280;10174;42.688;23.344;2023-04-16T06:14:57;94778.44;;;10.29;58.51
20027;BME280;10174;42.688;23.344;2023-04-16T06:17:22;94698.56;;;10.05;58.00
20027;BME280;10174;42.688;23.344;2023-04-16T06:19:48;94697.97;;;10.19;57.63
20027;BME280;10174;42.688;23.344;2023-04-16T06:22:13;94787.03;;;10.96;57.03
20027;BME280;10174;42.688;23.344;2023-04-16T06:24:38;94786.16;;;11.06;56.42
20027;BME280;10174;42.688;23.344;2023-04-16T06:27:04;94786.97;;;11.46;55.77
20027;BME280;10174;42.688;23.344;2023-04-16T06:29:29;94777.84;;;11.42;55.46
20027;BME280;10174;42.688;23.344;2023-04-16T06:31:55;94721.31;;;11.18;55.29
20027;BME280;10174;42.688;23.344;2023-04-16T06:34:20;94779.38;;;11.53;55.40
20027;BME280;10174;42.688;23.344;2023-04-16T06:36:45;94780.53;;;11.42;55.34
20027;BME280;10174;42.688;23.344;2023-04-16T06:39:11;94774.72;;;11.64;55.11
20027;BME280;10174;42.688;23.344;2023-04-16T06:41:36;94780.09;;;11.99;54.44
20027;BME280;10174;42.688;23.344;2023-04-16T06:44:02;94776.31;;;12.24;53.74
20027;BME280;10174;42.688;23.344;2023-04-16T06:46:27;94787.84;;;12.29;54.53
20027;BME280;10174;42.688;23.344;2023-04-16T06:48:53;94683.31;;;11.59;54.78
20027;BME280;10174;42.688;23.344;2023-04-16T06:51:18;94788.34;;;12.56;54.60
20027;BME280;10174;42.688;23.344;2023-04-16T06:53:43;94794.78;;;12.60;54.17
20027;BME280;10174;42.688;23.344;2023-04-16T06:56:09;94693.72;;;11.66;54.86
20027;BME280;10174;42.688;23.344;2023-04-16T06:58:35;94787.97;;;12.62;54.45
20027;BME280;10174;42.688;23.344;2023-04-16T07:01:00;94696.09;;;12.21;54.29
20027;BME280;10174;42.688;23.344;2023-04-16T07:03:26;94788.34;;;13.18;53.13
20027;BME280;10174;42.688;23.344;2023-04-16T07:05:52;94768.34;;;13.19;53.37
20027;BME280;10174;42.688;23.344;2023-04-16T07:08:17;94778.56;;;13.03;54.21
20027;BME280;10174;42.688;23.344;2023-04-16T07:10:42;94761.66;;;12.97;54.91
20027;BME280;10174;42.688;23.344;2023-04-16T07:13:08;94747.22;;;13.26;54.33
20027;BME280;10174;42.688;23.344;2023-04-16T07:15:34;94762.88;;;13.62;52.92
20027;BME280;10174;42.688;23.344;2023-04-16T07:17:59;94781.59;;;14.33;51.26
20027;BME280;10174;42.688;23.344;2023-04-16T07:20:25;94703.63;;;13.85;51.05
20027;BME280;10174;42.688;23.344;2023-04-16T07:22:50;94778.53;;;14.68;49.97
20027;BME280;10174;42.688;23.344;2023-04-16T07:25:15;94720.06;;;14.30;49.88
20027;BME280;10174;42.688;23.344;2023-04-16T07:27:41;94778.97;;;14.98;49.48
20027;BME280;10174;42.688;23.344;2023-04-16T07:30:07;94780.53;;;15.12;49.54
20027;BME280;10174;42.688;23.344;2023-04-16T07:32:33;94778.00;;;15.53;47.64
20027;BME280;10174;42.688;23.344;2023-04-16T07:34:59;94730.09;;;14.94;48.21
20027;BME280;10174;42.688;23.344;2023-04-16T07:37:24;94769.72;;;15.12;48.32
20027;BME280;10174;42.688;23.344;2023-04-16T07:39:50;94716.13;;;14.50;49.26
20027;BME280;10174;42.688;23.344;2023-04-16T07:42:16;94745.53;;;14.79;49.08
20027;BME280;10174;42.688;23.344;2023-04-16T07:44:42;94736.53;;;15.43;47.25
20027;BME280;10174;42.688;23.344;2023-04-16T07:47:08;94757.41;;;15.65;47.51
20027;BME280;10174;42.688;23.344;2023-04-16T07:49:33;94725.72;;;15.66;47.12
20027;BME280;10174;42.688;23.344;2023-04-16T07:51:58;94782.91;;;16.18;45.91
20027;BME280;10174;42.688;23.344;2023-04-16T07:54:24;94766.00;;;16.21;46.02
20027;BME280;10174;42.688;23.344;2023-04-16T07:56:49;94768.22;;;16.60;44.83
20027;BME280;10174;42.688;23.344;2023-04-16T07:59:15;94736.84;;;15.87;45.62
20027;BME280;10174;42.688;23.344;2023-04-16T08:01:40;94778.31;;;16.28;45.70
20027;BME280;10174;42.688;23.344;2023-04-16T08:04:06;94757.41;;;15.65;47.03
20027;BME280;10174;42.688;23.344;2023-04-16T08:06:31;94672.41;;;15.21;46.85
20027;BME280;10174;42.688;23.344;2023-04-16T08:08:56;94774.75;;;16.99;43.99
20027;BME280;10174;42.688;23.344;2023-04-16T08:11:22;94691.06;;;16.57;44.01
20027;BME280;10174;42.688;23.344;2023-04-16T08:13:48;94764.06;;;17.63;43.64
20027;BME280;10174;42.688;23.344;2023-04-16T08:16:14;94760.88;;;17.96;42.53
20027;BME280;10174;42.688;23.344;2023-04-16T08:18:39;94657.94;;;17.21;43.17
20027;BME280;10174;42.688;23.344;2023-04-16T08:21:05;94677.94;;;17.90;41.23
20027;BME280;10174;42.688;23.344;2023-04-16T08:23:30;94656.59;;;19.66;37.76
20027;BME280;10174;42.688;23.344;2023-04-16T08:25:56;94734.88;;;21.23;35.97
20027;BME280;10174;42.688;23.344;2023-04-16T08:28:22;94691.81;;;21.32;34.67
20027;BME280;10174;42.688;23.344;2023-04-16T08:30:47;94733.75;;;20.62;36.24
20027;BME280;10174;42.688;23.344;2023-04-16T08:33:12;94754.22;;;19.85;37.89
20027;BME280;10174;42.688;23.344;2023-04-16T08:35:38;94696.88;;;18.76;39.32
20027;BME280;10174;42.688;23.344;2023-04-16T08:38:04;94743.59;;;17.92;41.24
20027;BME280;10174;42.688;23.344;2023-04-16T08:40:30;94735.50;;;18.31;41.27
20027;BME280;10174;42.688;23.344;2023-04-16T08:42:58;94724.94;;;19.73;38.03
20027;BME280;10174;42.688;23.344;2023-04-16T08:45:25;94681.66;;;19.93;36.96
20027;BME280;10174;42.688;23.344;2023-04-16T08:47:52;94635.69;;;20.41;35.33
20027;BME280;10174;42.688;23.344;2023-04-16T08:50:24;94747.75;;;19.90;37.38
20027;BME280;10174;42.688;23.344;2023-04-16T08:53:03;94739.59;;;20.02;37.80
20027;BME280;10174;42.688;23.344;2023-04-16T08:55:36;94626.66;;;18.69;38.63
20027;BME280;10174;42.688;23.344;2023-04-16T08:58:07;94709.06;;;20.21;37.24
20027;BME280;10174;42.688;23.344;2023-04-16T09:00:33;94611.03;;;18.37;39.53
20027;BME280;10174;42.688;23.344;2023-04-16T09:02:59;94744.22;;;19.35;38.88
20027;BME280;10174;42.688;23.344;2023-04-16T09:05:26;94737.34;;;19.50;38.65
20027;BME280;10174;42.688;23.344;2023-04-16T09:07:53;94729.47;;;19.69;37.94
20027;BME280;10174;42.688;23.344;2023-04-16T09:10:19;94729.03;;;19.67;37.99
20027;BME280;10174;42.688;23.344;2023-04-16T09:12:44;94683.81;;;19.12;37.98
20027;BME280;10174;42.688;23.344;2023-04-16T09:15:11;94602.66;;;18.72;38.11
20027;BME280;10174;42.688;23.344;2023-04-16T09:17:37;94618.63;;;20.69;35.01
20027;BME280;10174;42.688;23.344;2023-04-16T09:20:07;94632.72;;;20.46;34.91
20027;BME280;10174;42.688;23.344;2023-04-16T09:22:34;94691.88;;;19.63;37.17
20027;BME280;10174;42.688;23.344;2023-04-16T09:25:00;94675.34;;;19.47;37.18
20027;BME280;10174;42.688;23.344;2023-04-16T09:27:25;94716.09;;;19.76;37.30
20027;BME280;10174;42.688;23.344;2023-04-16T09:29:51;94687.66;;;19.86;37.23
20027;BME280;10174;42.688;23.344;2023-04-16T09:32:23;94661.22;;;21.67;33.84
20027;BME280;10174;42.688;23.344;2023-04-16T09:34:56;94686.38;;;21.88;33.66
20027;BME280;10174;42.688;23.344;2023-04-16T09:37:23;94648.47;;;21.59;33.71
20027;BME280;10174;42.688;23.344;2023-04-16T09:39:54;94684.44;;;23.40;31.39
20027;BME280;10174;42.688;23.344;2023-04-16T09:42:25;94712.84;;;24.10;30.44
20027;BME280;10174;42.688;23.344;2023-04-16T09:44:51;94708.03;;;24.49;29.73
20027;BME280;10174;42.688;23.344;2023-04-16T09:47:17;94713.59;;;23.87;30.71
20027;BME280;10174;42.688;23.344;2023-04-16T09:49:43;94712.50;;;22.18;32.28
20027;BME280;10174;42.688;23.344;2023-04-16T09:52:12;94702.50;;;21.37;33.39
20027;BME280;10174;42.688;23.344;2023-04-16T09:54:53;94705.91;;;20.44;34.98
20027;BME280;10174;42.688;23.344;2023-04-16T09:57:23;94710.13;;;19.83;36.47
20027;BME280;10174;42.688;23.344;2023-04-16T10:00:01;94668.09;;;18.96;37.22
20027;BME280;10174;42.688;23.344;2023-04-16T10:02:28;94663.69;;;18.62;38.35
20027;BME280;10174;42.688;23.344;2023-04-16T10:04:54;94694.88;;;19.15;37.99
20027;BME280;10174;42.688;23.344;2023-04-16T10:07:20;94679.47;;;18.68;38.64
20027;BME280;10174;42.688;23.344;2023-04-16T10:09:49;94656.19;;;17.90;39.97
20027;BME280;10174;42.688;23.344;2023-04-16T10:12:16;94686.97;;;18.03;40.49
20027;BME280;10174;42.688;23.344;2023-04-16T10:14:42;94670.47;;;18.47;39.72
20027;BME280;10174;42.688;23.344;2023-04-16T10:17:07;94604.56;;;17.90;39.26
20027;BME280;10174;42.688;23.344;2023-04-16T10:19:33;94670.84;;;18.66;39.22
20027;BME280;10174;42.688;23.344;2023-04-16T10:22:00;94668.59;;;18.68;39.19
20027;BME280;10174;42.688;23.344;2023-04-16T10:24:27;94613.44;;;18.08;39.37
20027;BME280;10174;42.688;23.344;2023-04-16T10:26:53;94667.94;;;18.72;38.34
20027;BME280;10174;42.688;23.344;2023-04-16T10:29:20;94671.50;;;19.48;37.49
20027;BME280;10174;42.688;23.344;2023-04-16T10:31:47;94624.09;;;18.94;37.45
20027;BME280;10174;42.688;23.344;2023-04-16T10:34:13;94628.13;;;19.30;37.19
20027;BME280;10174;42.688;23.344;2023-04-16T10:36:39;94654.50;;;19.84;36.85
20027;BME280;10174;42.688;23.344;2023-04-16T10:39:09;94643.19;;;19.61;36.31
20027;BME280;10174;42.688;23.344;2023-04-16T10:41:35;94557.34;;;19.30;36.54
20027;BME280;10174;42.688;23.344;2023-04-16T10:44:10;94661.91;;;20.82;34.78
20027;BME280;10174;42.688;23.344;2023-04-16T10:46:41;94666.38;;;22.48;32.56
20027;BME280;10174;42.688;23.344;2023-04-16T10:49:24;94605.66;;;22.98;31.18
20027;BME280;10174;42.688;23.344;2023-04-16T10:51:58;94646.91;;;23.63;30.28
20027;BME280;10174;42.688;23.344;2023-04-16T10:56:54;94644.25;;;21.61;33.12
20027;BME280;10174;42.688;23.344;2023-04-16T10:59:21;94645.72;;;22.19;32.23
20027;BME280;10174;42.688;23.344;2023-04-16T11:01:52;94651.97;;;23.03;30.92
20027;BME280;10174;42.688;23.344;2023-04-16T11:12:15;94643.94;;;22.94;30.49
20027;BME280;10174;42.688;23.344;2023-04-16T11:14:41;94634.41;;;23.43;30.31
20027;BME280;10174;42.688;23.344;2023-04-16T11:17:07;94630.53;;;23.24;30.57
20027;BME280;10174;42.688;23.344;2023-04-16T11:19:34;94605.09;;;23.90;29.19
20027;BME280;10174;42.688;23.344;2023-04-16T11:22:01;94611.22;;;23.60;29.44
20027;BME280;10174;42.688;23.344;2023-04-16T11:24:31;94619.19;;;22.03;31.87
20027;BME280;10174;42.688;23.344;2023-04-16T11:26:56;94610.97;;;22.03;32.17
20027;BME280;10174;42.688;23.344;2023-04-16T11:29:22;94567.59;;;21.42;33.40
20027;BME280;10174;42.688;23.344;2023-04-16T11:31:51;94630.69;;;21.65;33.55
20027;BME280;10174;42.688;23.344;2023-04-16T11:34:18;94595.72;;;20.86;34.07
20027;BME280;10174;42.688;23.344;2023-04-16T11:36:48;94522.81;;;20.45;34.33
20027;BME280;10174;42.688;23.344;2023-04-16T11:39:13;94604.59;;;20.82;34.52
20027;BME280;10174;42.688;23.344;2023-04-16T11:41:50;94576.03;;;20.39;34.79
20027;BME280;10174;42.688;23.344;2023-04-16T11:44:19;94600.25;;;20.28;35.67
20027;BME280;10174;42.688;23.344;2023-04-16T11:46:45;94594.06;;;19.70;36.64
20027;BME280;10174;42.688;23.344;2023-04-16T11:49:11;94517.97;;;18.94;36.97
20027;BME280;10174;42.688;23.344;2023-04-16T11:51:41;94515.47;;;18.89;36.97
20027;BME280;10174;42.688;23.344;2023-04-16T11:54:07;94536.13;;;19.02;37.09
20027;BME280;10174;42.688;23.344;2023-04-16T11:56:34;94587.66;;;19.08;37.60
20027;BME280;10174;42.688;23.344;2023-04-16T11:59:11;94579.53;;;19.20;37.50
20027;BME280;10174;42.688;23.344;2023-04-16T12:01:38;94583.00;;;19.54;36.65
20027;BME280;10174;42.688;23.344;2023-04-16T12:04:04;94546.81;;;19.53;36.73
20027;BME280;10174;42.688;23.344;2023-04-16T12:06:30;94578.88;;;20.18;35.85
20027;BME280;10174;42.688;23.344;2023-04-16T12:08:59;94536.81;;;20.44;35.29
20027;BME280;10174;42.688;23.344;2023-04-16T12:11:40;94556.88;;;20.64;35.03
20027;BME280;10174;42.688;23.344;2023-04-16T12:14:09;94553.25;;;20.72;35.10
20027;BME280;10174;42.688;23.344;2023-04-16T12:16:35;94406.66;;;19.38;35.75
20027;BME280;10174;42.688;23.344;2023-04-16T12:19:02;94550.41;;;20.56;35.16
20027;BME280;10174;42.688;23.344;2023-04-16T12:24:02;94495.63;;;20.08;35.76
20027;BME280;10174;42.688;23.344;2023-04-16T12:26:36;94552.75;;;20.82;35.07
20027;BME280;10174;42.688;23.344;2023-04-16T12:31:44;94530.97;;;20.58;35.47
20027;BME280;10174;42.688;23.344;2023-04-16T12:34:10;94532.44;;;20.55;35.47
20027;BME280;10174;42.688;23.344;2023-04-16T12:36:36;94542.41;;;20.23;36.17
20027;BME280;10174;42.688;23.344;2023-04-16T12:39:02;94536.06;;;19.94;36.80
20027;BME280;10174;42.688;23.344;2023-04-16T12:41:27;94533.56;;;19.64;37.03
20027;BME280;10174;42.688;23.344;2023-04-16T12:44:08;94468.34;;;19.10;37.23
20027;BME280;10174;42.688;23.344;2023-04-16T12:46:39;94531.72;;;19.56;37.65
20027;BME280;10174;42.688;23.344;2023-04-16T12:49:05;94528.19;;;19.55;37.61
20027;BME280;10174;42.688;23.344;2023-04-16T12:51:32;94521.63;;;19.44;37.85
20027;BME280;10174;42.688;23.344;2023-04-16T12:53:58;94305.56;;;18.08;37.87
20027;BME280;10174;42.688;23.344;2023-04-16T12:56:23;94531.94;;;19.38;38.12
20027;BME280;10174;42.688;23.344;2023-04-16T12:58:49;94511.75;;;19.39;38.54
20027;BME280;10174;42.688;23.344;2023-04-16T13:01:19;94524.25;;;19.65;38.05
20027;BME280;10174;42.688;23.344;2023-04-16T13:03:45;94521.25;;;19.21;40.68
20027;BME280;10174;42.688;23.344;2023-04-16T13:06:12;94498.59;;;18.96;40.16